createdAt,value
2022-09-16T00:01:35.916Z,96832.00
2022-09-16T00:03:37.360Z,96845.63
2022-09-16T00:05:40.047Z,96870.38
2022-09-16T00:07:41.348Z,96848.31
2022-09-16T00:09:42.680Z,96857.69
2022-09-16T00:11:44.001Z,96855.16
2022-09-16T00:13:45.311Z,96858.56
2022-09-16T00:15:46.650Z,96870.50
2022-09-16T00:17:47.985Z,96867.13
2022-09-16T00:19:50.565Z,96866.28
2022-09-16T00:21:51.871Z,96858.63
2022-09-16T00:23:53.175Z,96857.81
2022-09-16T00:25:54.516Z,96835.72
2022-09-16T00:27:55.867Z,96833.25
2022-09-16T00:29:57.185Z,96823.09
2022-09-16T00:31:58.453Z,96823.84
2022-09-16T00:33:59.735Z,96819.69
2022-09-16T00:36:01.001Z,96827.34
2022-09-16T00:38:02.305Z,96814.56
2022-09-16T00:40:03.681Z,96820.63
2022-09-16T00:42:05.059Z,96831.50
2022-09-16T00:44:06.330Z,96818.72
2022-09-16T00:46:07.700Z,96826.25
2022-09-16T00:48:09.604Z,96825.09
2022-09-16T00:50:10.913Z,96823.75
2022-09-16T00:52:12.181Z,96828.84
2022-09-16T00:54:13.448Z,96821.25
2022-09-16T00:56:14.725Z,96819.69
2022-09-16T00:58:16.032Z,96807.03
2022-09-16T01:00:17.828Z,96824.13
2022-09-16T01:02:19.151Z,96823.28
2022-09-16T01:04:20.479Z,96822.56
2022-09-16T01:06:21.739Z,96823.41
2022-09-16T01:08:23.066Z,96825.13
2022-09-16T01:10:24.409Z,96826.81
2022-09-16T01:12:25.902Z,96828.50
2022-09-16T01:14:45.726Z,96821.69
2022-09-16T01:16:47.008Z,96829.34
2022-09-16T01:18:48.280Z,96829.38
2022-09-16T01:20:49.596Z,96828.50
2022-09-16T01:22:50.872Z,96823.09
2022-09-16T01:24:52.179Z,96819.53
2022-09-16T01:26:53.439Z,96818.63
2022-09-16T01:28:54.742Z,96814.38
2022-09-16T01:30:56.201Z,96822.91
2022-09-16T01:32:57.594Z,96828.91
2022-09-16T01:34:58.947Z,96828.91
2022-09-16T01:37:00.304Z,96690.88
2022-09-16T01:39:01.605Z,96820.34
2022-09-16T01:41:02.930Z,96817.78
2022-09-16T01:43:04.287Z,96822.91
2022-09-16T01:45:05.582Z,96825.44
2022-09-16T01:47:06.846Z,96836.56
2022-09-16T01:49:08.112Z,96835.72
2022-09-16T01:51:09.399Z,96842.25
2022-09-16T01:53:10.683Z,96837.94
2022-09-16T01:55:11.983Z,96830.28
2022-09-16T01:57:13.498Z,96837.09
2022-09-16T01:59:15.112Z,96840.53
2022-09-16T02:01:16.481Z,96836.34
2022-09-16T02:03:17.782Z,96841.44
2022-09-16T02:05:19.079Z,96843.16
2022-09-16T02:07:20.603Z,96840.72
2022-09-16T02:09:21.861Z,96836.50
2022-09-16T02:11:23.159Z,96839.97
2022-09-16T02:13:24.483Z,96844.22
2022-09-16T02:15:25.799Z,96842.56
2022-09-16T02:17:27.076Z,96844.25
2022-09-16T02:19:28.351Z,96852.75
2022-09-16T02:21:29.622Z,96844.25
2022-09-16T02:23:33.236Z,96845.94
2022-09-16T02:25:34.595Z,96850.22
2022-09-16T02:27:35.898Z,96846.00
2022-09-16T02:29:37.191Z,96843.56
2022-09-16T02:31:38.530Z,96846.13
2022-09-16T02:33:39.811Z,96847.06
2022-09-16T02:35:41.102Z,96853.06
2022-09-16T02:37:42.453Z,96843.72
2022-09-16T02:39:45.010Z,96848.06
2022-09-16T02:41:47.134Z,96851.53
2022-09-16T02:43:48.399Z,96848.16
2022-09-16T02:45:49.723Z,96843.09
2022-09-16T02:47:51.003Z,96847.50
2022-09-16T02:49:52.267Z,96849.25
2022-09-16T02:51:53.771Z,96852.63
2022-09-16T02:53:55.139Z,96856.13
2022-09-16T02:55:56.437Z,96852.75
2022-09-16T02:57:57.702Z,96851.09
2022-09-16T02:59:59.003Z,96851.09
2022-09-16T03:02:01.274Z,96851.16
2022-09-16T03:04:02.712Z,96852.81
2022-09-16T03:06:04.117Z,96853.69
2022-09-16T03:08:07.271Z,96848.59
2022-09-16T03:10:09.001Z,96839.13
2022-09-16T03:12:10.299Z,96845.94
2022-09-16T03:14:11.570Z,96842.53
2022-09-16T03:16:13.387Z,96839.03
2022-09-16T03:18:14.756Z,96844.69
2022-09-16T03:20:16.015Z,96838.78
2022-09-16T03:22:17.286Z,96839.59
2022-09-16T03:24:18.563Z,96846.28
2022-09-16T03:26:19.858Z,96837.63
2022-09-16T03:28:21.515Z,96838.47
2022-09-16T03:30:22.810Z,96836.81
2022-09-16T03:32:24.134Z,96830.03
2022-09-16T03:34:25.399Z,96830.03
2022-09-16T03:36:26.667Z,96829.22
2022-09-16T03:38:28.482Z,96828.31
2022-09-16T03:40:29.954Z,96828.38
2022-09-16T03:42:31.366Z,96830.09
2022-09-16T03:44:32.659Z,96832.66
2022-09-16T03:46:34.046Z,96822.53
2022-09-16T03:48:35.367Z,96827.63
2022-09-16T03:50:36.687Z,96830.22
2022-09-16T03:52:38.022Z,96835.28
2022-09-16T03:54:39.298Z,96837.09
2022-09-16T03:56:40.563Z,96827.13
2022-09-16T03:58:41.840Z,96828.84
2022-09-16T04:00:43.109Z,96822.97
2022-09-16T04:02:44.541Z,96830.69
2022-09-16T04:04:46.123Z,96824.81
2022-09-16T04:06:47.596Z,96821.44
2022-09-16T04:08:50.681Z,96828.25
2022-09-16T04:10:51.941Z,96833.38
2022-09-16T04:12:53.554Z,96826.59
2022-09-16T04:14:54.923Z,96836.78
2022-09-16T04:16:56.261Z,96834.31
2022-09-16T04:18:57.569Z,96834.44
2022-09-16T04:20:58.875Z,96835.31
2022-09-16T04:23:00.191Z,96831.91
2022-09-16T04:25:01.810Z,96746.38
2022-09-16T04:27:03.078Z,96833.72
2022-09-16T04:29:04.344Z,96829.44
2022-09-16T04:31:05.728Z,96832.00
2022-09-16T04:33:07.074Z,96837.75
2022-09-16T04:35:08.353Z,96844.22
2022-09-16T04:37:09.647Z,96830.59
2022-09-16T04:39:12.227Z,96827.97
2022-09-16T04:41:13.509Z,96835.63
2022-09-16T04:43:15.107Z,96829.56
2022-09-16T04:45:16.458Z,96834.75
2022-09-16T04:47:17.727Z,96846.59
2022-09-16T04:49:19.002Z,96843.19
2022-09-16T04:51:20.336Z,96840.59
2022-09-16T04:53:21.666Z,96840.59
2022-09-16T04:55:23.270Z,96841.44
2022-09-16T04:57:24.558Z,96848.44
2022-09-16T04:59:25.901Z,96840.00
2022-09-16T05:01:27.382Z,96843.47
2022-09-16T05:03:28.813Z,96843.50
2022-09-16T05:05:30.171Z,96850.28
2022-09-16T05:07:31.435Z,96847.72
2022-09-16T05:09:32.760Z,96850.78
2022-09-16T05:11:34.068Z,96850.38
2022-09-16T05:13:35.395Z,96854.28
2022-09-16T05:15:36.755Z,96851.69
2022-09-16T05:17:50.959Z,96850.94
2022-09-16T05:19:52.907Z,96849.25
2022-09-16T05:21:54.174Z,96850.94
2022-09-16T05:23:56.073Z,96858.63
2022-09-16T05:25:57.434Z,96854.44
2022-09-16T05:27:58.752Z,96850.13
2022-09-16T05:30:00.130Z,96853.50
2022-09-16T05:32:01.431Z,96709.75
2022-09-16T05:34:02.726Z,96854.44
2022-09-16T05:36:03.988Z,96852.78
2022-09-16T05:38:05.276Z,96848.59
2022-09-16T05:40:06.656Z,96852.00
2022-09-16T05:42:07.927Z,96859.66
2022-09-16T05:44:09.203Z,96854.53
2022-09-16T05:46:11.142Z,96855.34
2022-09-16T05:48:12.438Z,96854.53
2022-09-16T05:50:13.700Z,96846.06
2022-09-16T05:52:14.983Z,96852.00
2022-09-16T05:54:18.341Z,96848.53
2022-09-16T05:56:19.715Z,96842.28
2022-09-16T05:58:21.022Z,96841.97
2022-09-16T06:00:22.983Z,96847.75
2022-09-16T06:02:24.901Z,96844.63
2022-09-16T06:04:26.239Z,96849.72
2022-09-16T06:06:27.505Z,96852.97
2022-09-16T06:08:28.960Z,96849.97
2022-09-16T06:10:30.406Z,96847.06
2022-09-16T06:12:31.687Z,96844.09
2022-09-16T06:14:32.987Z,96846.09
2022-09-16T06:16:34.450Z,96848.00
2022-09-16T06:18:36.651Z,96711.09
2022-09-16T06:20:37.918Z,96843.13
2022-09-16T06:22:40.020Z,96846.56
2022-09-16T06:24:41.521Z,96838.16
2022-09-16T06:26:42.774Z,96841.66
2022-09-16T06:28:44.279Z,96833.19
2022-09-16T06:30:45.706Z,96852.81
2022-09-16T06:32:47.027Z,96832.44
2022-09-16T06:34:48.323Z,96835.06
2022-09-16T06:36:49.671Z,96844.41
2022-09-16T06:38:51.269Z,96848.66
2022-09-16T06:40:52.587Z,96842.72
2022-09-16T06:42:58.330Z,96842.03
2022-09-16T06:45:03.173Z,96844.59
2022-09-16T06:47:04.494Z,96847.94
2022-09-16T06:49:06.712Z,96849.72
2022-09-16T06:51:08.219Z,96858.19
2022-09-16T06:53:09.501Z,96858.25
2022-09-16T06:55:10.781Z,96857.44
2022-09-16T06:57:12.464Z,96860.00
2022-09-16T06:59:14.455Z,96866.81
2022-09-16T07:01:15.803Z,96861.78
2022-09-16T07:03:17.120Z,96863.50
2022-09-16T07:05:18.598Z,96861.78
2022-09-16T07:07:19.871Z,96857.56
2022-09-16T07:09:21.195Z,96862.66
2022-09-16T07:11:22.478Z,96850.84
2022-09-16T07:13:23.779Z,96861.06
2022-09-16T07:15:25.043Z,96861.91
2022-09-16T07:17:27.341Z,96860.22
2022-09-16T07:19:28.683Z,96857.75
2022-09-16T07:21:30.535Z,96857.75
2022-09-16T07:23:32.393Z,96858.59
2022-09-16T07:25:35.836Z,96856.91
2022-09-16T07:27:37.714Z,96860.38
2022-09-16T07:29:39.038Z,96856.13
2022-09-16T07:31:40.343Z,96857.81
2022-09-16T07:33:41.671Z,96863.78
2022-09-16T07:35:42.964Z,96860.41
2022-09-16T07:37:44.239Z,96862.09
2022-09-16T07:39:45.987Z,96864.66
2022-09-16T07:41:48.718Z,96860.47
2022-09-16T07:43:50.723Z,96860.41
2022-09-16T07:45:52.075Z,96858.69
2022-09-16T07:47:53.408Z,96860.38
2022-09-16T07:49:56.158Z,96863.72
2022-09-16T07:51:57.487Z,96860.38
2022-09-16T07:53:59.445Z,96867.16
2022-09-16T07:56:00.735Z,96862.91
2022-09-16T07:58:02.073Z,96868.81
2022-09-16T08:00:03.386Z,96873.03
2022-09-16T08:02:05.326Z,96873.88
2022-09-16T08:04:06.770Z,96862.00
2022-09-16T08:06:08.075Z,96872.19
2022-09-16T08:08:09.585Z,96876.44
2022-09-16T08:10:11.059Z,96880.75
2022-09-16T08:12:14.578Z,96861.31
2022-09-16T08:14:15.883Z,96868.09
2022-09-16T08:16:17.195Z,96863.03
2022-09-16T08:18:18.510Z,96858.78
2022-09-16T08:20:20.200Z,96861.34
2022-09-16T08:22:23.482Z,96862.22
2022-09-16T08:24:24.803Z,96865.66
2022-09-16T08:26:26.203Z,96864.06
2022-09-16T08:28:35.841Z,96862.38
2022-09-16T08:30:51.264Z,96869.19
2022-09-16T08:32:54.422Z,96866.69
2022-09-16T08:34:56.004Z,96854.84
2022-09-16T08:36:57.305Z,96859.06
2022-09-16T08:38:58.774Z,96856.56
2022-09-16T08:41:00.108Z,96861.66
2022-09-16T08:43:01.509Z,96854.00
2022-09-16T08:45:02.846Z,96851.47
2022-09-16T08:47:04.112Z,96857.34
2022-09-16T08:49:05.438Z,96851.41
2022-09-16T08:51:08.050Z,96859.06
2022-09-16T08:53:09.399Z,96858.22
2022-09-16T08:55:10.874Z,96859.94
2022-09-16T08:57:12.265Z,96869.34
2022-09-16T08:59:13.556Z,96860.03
2022-09-16T09:01:14.887Z,96868.59
2022-09-16T09:03:16.238Z,96866.91
2022-09-16T09:05:18.012Z,96865.13
2022-09-16T09:07:19.318Z,96865.19
2022-09-16T09:09:20.594Z,96868.63
2022-09-16T09:11:21.934Z,96871.22
2022-09-16T09:13:24.149Z,96876.34
2022-09-16T09:15:28.249Z,96872.16
2022-09-16T09:17:29.769Z,96870.47
2022-09-16T09:19:31.512Z,96873.69
2022-09-16T09:21:32.788Z,96865.00
2022-09-16T09:23:34.096Z,96857.94
2022-09-16T09:25:35.433Z,96854.47
2022-09-16T09:29:38.030Z,96851.16
2022-09-16T09:31:41.029Z,96858.78
2022-09-16T09:33:46.569Z,96845.19
2022-09-16T09:35:50.027Z,96849.47
2022-09-16T09:37:51.296Z,96710.81
2022-09-16T09:39:52.664Z,96715.91
2022-09-16T09:41:53.992Z,96854.00
2022-09-16T09:43:55.266Z,96852.41
2022-09-16T09:45:56.756Z,96858.41
2022-09-16T09:47:58.084Z,96867.81
2022-09-16T09:49:59.384Z,96861.91
2022-09-16T09:52:00.729Z,96867.06
2022-09-16T09:54:02.235Z,96869.63
2022-09-16T09:56:03.492Z,96865.41
2022-09-16T09:58:05.413Z,96862.84
2022-09-16T10:00:11.144Z,96868.88
2022-09-16T10:02:12.462Z,96868.06
2022-09-16T10:04:13.835Z,96863.84
2022-09-16T10:06:15.583Z,96850.31
2022-09-16T10:08:16.968Z,96857.16
2022-09-16T10:10:18.543Z,96848.69
2022-09-16T10:12:19.857Z,96847.78
2022-09-16T10:14:21.135Z,96845.78
2022-09-16T10:16:22.688Z,96844.66
2022-09-16T10:18:24.112Z,96843.59
2022-09-16T10:20:25.404Z,96840.91
2022-09-16T10:22:26.865Z,96837.44
2022-09-16T10:24:28.275Z,96847.47
2022-09-16T10:26:29.575Z,96833.84
2022-09-16T10:28:30.952Z,96828.66
2022-09-16T10:30:32.928Z,96832.88
2022-09-16T10:32:34.228Z,96842.34
2022-09-16T10:34:35.553Z,96826.44
2022-09-16T10:36:36.847Z,96836.72
2022-09-16T10:38:38.279Z,96825.84
2022-09-16T10:40:39.563Z,96823.28
2022-09-16T10:42:40.850Z,96829.00
2022-09-16T10:44:42.172Z,96828.00
2022-09-16T10:46:43.474Z,96821.13
2022-09-16T10:48:44.880Z,96822.81
2022-09-16T10:50:46.228Z,96818.75
2022-09-16T10:52:47.572Z,96838.38
2022-09-16T10:54:48.873Z,96830.84
2022-09-16T10:56:50.185Z,96824.16
2022-09-16T10:58:51.496Z,96832.75
2022-09-16T11:00:52.907Z,96833.63
2022-09-16T11:02:54.268Z,96826.88
2022-09-16T11:04:55.591Z,96828.66
2022-09-16T11:06:56.868Z,96824.44
2022-09-16T11:08:58.144Z,96818.59
2022-09-16T11:11:00.478Z,96821.16
2022-09-16T11:13:01.779Z,96822.88
2022-09-16T11:15:03.068Z,96832.28
2022-09-16T11:17:05.537Z,96825.56
2022-09-16T11:19:06.911Z,96820.50
2022-09-16T11:21:08.186Z,96829.03
2022-09-16T11:23:09.555Z,96835.00
2022-09-16T11:25:10.876Z,96852.06
2022-09-16T11:27:12.151Z,96864.81
2022-09-16T11:29:13.426Z,96853.00
2022-09-16T11:31:14.786Z,96847.91
2022-09-16T11:33:16.655Z,96847.91
2022-09-16T11:35:18.605Z,96844.53
2022-09-16T11:37:19.887Z,96844.53
2022-09-16T11:39:21.181Z,96826.53
2022-09-16T11:41:22.515Z,96829.81
2022-09-16T11:43:23.778Z,96822.88
2022-09-16T11:45:25.279Z,96813.06
2022-09-16T11:47:26.656Z,96811.59
2022-09-16T11:49:28.702Z,96796.59
2022-09-16T11:51:30.099Z,96792.31
2022-09-16T11:53:34.171Z,96794.63
2022-09-16T11:55:37.120Z,96792.97
2022-09-16T11:57:38.408Z,96793.06
2022-09-16T11:59:39.776Z,96790.59
2022-09-16T12:01:41.169Z,96789.25
2022-09-16T12:03:42.509Z,96791.50
2022-09-16T12:05:43.975Z,96785.44
2022-09-16T12:07:45.335Z,96793.53
2022-09-16T12:09:46.696Z,96787.88
2022-09-16T12:11:48.087Z,96793.66
2022-09-16T12:13:49.418Z,96806.63
2022-09-16T12:15:51.180Z,96797.59
2022-09-16T12:17:52.474Z,96802.53
2022-09-16T12:19:53.741Z,96808.78
2022-09-16T12:21:57.898Z,96801.69
2022-09-16T12:23:59.637Z,96802.47
2022-09-16T12:26:00.963Z,96798.81
2022-09-16T12:28:02.272Z,96792.09
2022-09-16T12:30:03.588Z,96794.63
2022-09-16T12:32:05.260Z,96795.47
2022-09-16T12:34:06.580Z,96791.69
2022-09-16T12:36:07.924Z,96794.47
2022-09-16T12:38:09.223Z,96794.38
2022-09-16T12:40:10.672Z,96788.84
2022-09-16T12:42:12.476Z,96793.69
2022-09-16T12:44:30.548Z,96792.31
2022-09-16T12:46:37.065Z,96793.66
2022-09-16T12:48:38.454Z,96798.16
2022-09-16T12:50:39.760Z,96791.97
2022-09-16T12:52:41.178Z,96780.44
2022-09-16T12:55:03.967Z,96770.44
2022-09-16T12:57:04.772Z,96783.50
2022-09-16T12:59:06.207Z,96774.09
2022-09-16T13:01:07.522Z,96782.13
2022-09-16T13:03:08.857Z,96788.69
2022-09-16T13:05:10.227Z,96792.91
2022-09-16T13:07:11.532Z,96779.88
2022-09-16T13:09:12.831Z,96777.91
2022-09-16T13:12:00.559Z,96636.00
2022-09-16T13:13:35.462Z,96770.44
2022-09-16T13:15:36.898Z,96761.31
2022-09-16T13:17:38.215Z,96757.28
2022-09-16T13:19:39.486Z,96756.03
2022-09-16T13:21:40.780Z,96764.75
2022-09-16T13:23:42.092Z,96763.94
2022-09-16T13:25:43.409Z,96763.78
2022-09-16T13:27:44.729Z,96762.72
2022-09-16T13:29:46.011Z,96754.69
2022-09-16T13:31:47.580Z,96751.50
2022-09-16T13:33:49.055Z,96762.72
2022-09-16T13:35:50.376Z,96754.44
2022-09-16T13:37:51.774Z,96756.09
2022-09-16T13:39:53.108Z,96750.16
2022-09-16T13:41:54.591Z,96758.75
2022-09-16T13:43:55.853Z,96758.13
2022-09-16T13:45:57.217Z,96754.81
2022-09-16T13:47:58.498Z,96751.63
2022-09-16T13:49:59.760Z,96749.19
2022-09-16T13:52:01.038Z,96744.09
2022-09-16T13:54:04.549Z,96745.50
2022-09-16T13:56:05.991Z,96746.75
2022-09-16T13:58:07.259Z,96747.13
2022-09-16T14:00:09.499Z,96746.78
2022-09-16T14:02:11.029Z,96753.41
2022-09-16T14:04:12.346Z,96738.78
2022-09-16T14:06:13.664Z,96753.97
2022-09-16T14:08:14.929Z,96744.59
2022-09-16T14:10:16.204Z,96738.50
2022-09-16T14:12:17.538Z,96731.59
2022-09-16T14:14:43.239Z,96733.66
2022-09-16T14:16:40.151Z,96737.78
2022-09-16T14:18:41.478Z,96736.47
2022-09-16T14:20:42.735Z,96746.88
2022-09-16T14:22:46.932Z,96603.59
2022-09-16T14:24:52.956Z,96739.81
2022-09-16T14:27:02.215Z,96740.91
2022-09-16T14:29:03.610Z,96744.50
2022-09-16T14:31:04.955Z,96742.94
2022-09-16T14:33:06.254Z,96746.44
2022-09-16T14:35:07.539Z,96748.25
2022-09-16T14:37:08.825Z,96745.72
2022-09-16T14:39:10.781Z,96750.22
2022-09-16T14:41:12.161Z,96745.09
2022-09-16T14:43:13.755Z,96738.47
2022-09-16T14:45:16.866Z,96748.81
2022-09-16T14:47:29.466Z,96736.94
2022-09-16T14:49:32.373Z,96740.25
2022-09-16T14:51:35.685Z,96729.41
2022-09-16T14:53:38.351Z,96735.94
2022-09-16T14:55:40.394Z,96730.81
2022-09-16T14:57:41.674Z,96740.63
2022-09-16T14:59:43.005Z,96741.16
2022-09-16T15:01:44.336Z,96748.34
2022-09-16T15:03:45.805Z,96775.47
2022-09-16T15:05:47.147Z,96784.31
2022-09-16T15:08:12.134Z,96767.97
2022-09-16T15:10:09.902Z,96767.03
2022-09-16T15:12:11.164Z,96762.34
2022-09-16T15:14:12.426Z,96754.56
2022-09-16T15:16:13.983Z,96742.53
2022-09-16T15:18:15.279Z,96741.72
2022-09-16T15:20:17.303Z,96731.50
2022-09-16T15:22:18.584Z,96721.78
2022-09-16T15:24:19.859Z,96722.03
2022-09-16T15:26:22.903Z,96725.91
2022-09-16T15:28:24.223Z,96724.66
2022-09-16T15:30:25.655Z,96723.22
2022-09-16T15:32:28.498Z,96721.94
2022-09-16T15:34:30.073Z,96718.38
2022-09-16T15:36:31.346Z,96716.25
2022-09-16T15:38:32.831Z,96719.47
2022-09-16T15:40:35.761Z,96719.03
2022-09-16T15:42:37.135Z,96711.22
2022-09-16T15:44:38.552Z,96710.31
2022-09-16T15:46:39.896Z,96712.56
2022-09-16T15:48:41.378Z,96715.72
2022-09-16T15:50:42.684Z,96710.31
2022-09-16T15:52:44.056Z,96707.66
2022-09-16T15:54:45.434Z,96714.38
2022-09-16T15:56:46.712Z,96715.41
2022-09-16T15:58:48.083Z,96712.47
2022-09-16T16:00:49.606Z,96712.75
2022-09-16T16:02:51.741Z,96712.22
2022-09-16T16:04:53.086Z,96707.13
2022-09-16T16:06:54.602Z,96719.03
2022-09-16T16:08:58.135Z,96712.63
2022-09-16T16:10:59.448Z,96716.38
2022-09-16T16:13:00.966Z,96719.97
2022-09-16T16:15:02.279Z,96719.41
2022-09-16T16:17:18.816Z,96710.34
2022-09-16T16:19:20.122Z,96712.28
2022-09-16T16:21:21.922Z,96717.53
2022-09-16T16:23:23.219Z,96716.00
2022-09-16T16:25:24.490Z,96716.13
2022-09-16T16:27:25.763Z,96714.59
2022-09-16T16:29:27.109Z,96723.16
2022-09-16T16:31:28.440Z,96713.09
2022-09-16T16:33:29.781Z,96714.03
2022-09-16T16:35:31.042Z,96715.00
2022-09-16T16:37:47.928Z,96726.16
2022-09-16T16:39:49.258Z,96712.56
2022-09-16T16:41:50.614Z,96700.69
2022-09-16T16:43:51.895Z,96708.47
2022-09-16T16:45:53.187Z,96709.38
2022-09-16T16:47:54.519Z,96566.69
2022-09-16T16:49:55.780Z,96708.69
2022-09-16T16:51:57.926Z,96700.31
2022-09-16T16:53:59.276Z,96703.69
2022-09-16T16:56:00.620Z,96713.97
2022-09-16T16:58:01.891Z,96710.63
2022-09-16T17:00:03.190Z,96717.50
2022-09-16T17:02:04.757Z,96716.69
2022-09-16T17:04:06.115Z,96723.59
2022-09-16T17:06:07.610Z,96718.63
2022-09-16T17:08:09.561Z,96722.88
2022-09-16T17:10:11.238Z,96716.25
2022-09-16T17:12:13.790Z,96719.91
2022-09-16T17:14:15.834Z,96717.03
2022-09-16T17:16:17.351Z,96715.97
2022-09-16T17:18:18.692Z,96720.50
2022-09-16T17:20:20.019Z,96727.47
2022-09-16T17:22:21.347Z,96725.84
2022-09-16T17:24:22.675Z,96725.63
2022-09-16T17:26:24.123Z,96731.34
2022-09-16T17:28:25.789Z,96746.97
2022-09-16T17:30:27.071Z,96725.72
2022-09-16T17:32:28.347Z,96725.38
2022-09-16T17:34:30.138Z,96723.09
2022-09-16T17:36:31.586Z,96728.34
2022-09-16T17:38:32.919Z,96730.16
2022-09-16T17:40:34.671Z,96729.44
2022-09-16T17:42:36.061Z,96727.84
2022-09-16T17:44:37.337Z,96727.94
2022-09-16T17:46:38.707Z,96734.75
2022-09-16T17:48:40.089Z,96732.28
2022-09-16T17:50:41.370Z,96722.94
2022-09-16T17:52:42.851Z,96735.81
2022-09-16T17:54:44.358Z,96733.34
2022-09-16T17:56:45.688Z,96735.13
2022-09-16T17:58:47.247Z,96738.56
2022-09-16T18:00:48.555Z,96728.41
2022-09-16T18:02:49.903Z,96733.59
2022-09-16T18:04:51.725Z,96727.66
2022-09-16T18:06:53.083Z,96736.13
2022-09-16T18:08:54.383Z,96743.03
2022-09-16T18:10:55.710Z,96745.50
2022-09-16T18:13:00.093Z,96750.69
2022-09-16T18:15:01.743Z,96744.78
2022-09-16T18:17:03.473Z,96749.91
2022-09-16T18:19:05.123Z,96745.69
2022-09-16T18:21:06.450Z,96744.88
2022-09-16T18:23:07.774Z,96750.03
2022-09-16T18:25:09.339Z,96745.81
2022-09-16T18:27:10.599Z,96740.41
2022-09-16T18:29:12.306Z,96742.69
2022-09-16T18:31:14.266Z,96741.19
2022-09-16T18:33:15.711Z,96738.06
2022-09-16T18:35:16.978Z,96742.78
2022-09-16T18:37:18.296Z,96744.91
2022-09-16T18:39:19.559Z,96747.78
2022-09-16T18:41:21.513Z,96741.16
2022-09-16T18:43:22.869Z,96740.91
2022-09-16T18:45:24.148Z,96738.34
2022-09-16T18:47:25.461Z,96748.09
2022-09-16T18:49:28.024Z,96748.44
2022-09-16T18:51:29.296Z,96747.00
2022-09-16T18:53:30.929Z,96755.63
2022-09-16T18:55:32.243Z,96751.31
2022-09-16T18:57:33.732Z,96750.94
2022-09-16T18:59:36.657Z,96755.69
2022-09-16T19:01:38.147Z,96756.03
2022-09-16T19:03:39.532Z,96757.59
2022-09-16T19:05:40.828Z,96761.63
2022-09-16T19:07:42.124Z,96752.44
2022-09-16T19:09:45.424Z,96771.50
2022-09-16T19:11:46.915Z,96753.88
2022-09-16T19:13:48.311Z,96759.06
2022-09-16T19:15:50.351Z,96753.81
2022-09-16T19:17:51.799Z,96752.91
2022-09-16T19:19:53.163Z,96755.63
2022-09-16T19:21:54.488Z,96751.69
2022-09-16T19:23:56.799Z,96751.81
2022-09-16T19:26:00.947Z,96750.66
2022-09-16T19:28:02.261Z,96749.13
2022-09-16T19:30:03.566Z,96744.50
2022-09-16T19:32:05.337Z,96740.88
2022-09-16T19:34:06.814Z,96742.03
2022-09-16T19:36:08.095Z,96743.13
2022-09-16T19:38:09.582Z,96740.19
2022-09-16T19:40:11.781Z,96743.25
2022-09-16T19:42:13.119Z,96741.56
2022-09-16T19:44:14.391Z,96741.69
2022-09-16T19:46:15.692Z,96736.97
2022-09-16T19:48:17.160Z,96744.56
2022-09-16T19:50:18.458Z,96741.94
2022-09-16T19:52:19.768Z,96733.72
2022-09-16T19:54:23.992Z,96743.03
2022-09-16T19:56:25.299Z,96735.09
2022-09-16T19:58:26.731Z,96728.28
2022-09-16T20:00:41.511Z,96725.78
2022-09-16T20:02:49.925Z,96723.28
2022-09-16T20:04:51.278Z,96730.88
2022-09-16T20:06:52.538Z,96739.59
2022-09-16T20:08:53.863Z,96732.91
2022-09-16T20:10:55.380Z,96736.34
2022-09-16T20:12:59.388Z,96738.69
2022-09-16T20:15:01.318Z,96741.06
2022-09-16T20:17:02.940Z,96740.66
2022-09-16T20:19:04.292Z,96745.53
2022-09-16T20:21:05.648Z,96743.59
2022-09-16T20:23:07.545Z,96742.56
2022-09-16T20:25:22.553Z,96751.69
2022-09-16T20:27:24.861Z,96745.06
2022-09-16T20:29:26.377Z,96743.13
2022-09-16T20:31:27.654Z,96749.47
2022-09-16T20:33:33.122Z,96751.63
2022-09-16T20:35:34.817Z,96744.16
2022-09-16T20:37:36.107Z,96745.91
2022-09-16T20:39:37.413Z,96748.59
2022-09-16T20:41:38.807Z,96748.44
2022-09-16T20:43:40.097Z,96744.22
2022-09-16T20:45:41.490Z,96745.19
2022-09-16T20:47:42.803Z,96741.66
2022-09-16T20:49:44.291Z,96740.09
2022-09-16T20:51:45.620Z,96739.47
2022-09-16T20:53:46.951Z,96753.88
2022-09-16T20:55:48.245Z,96739.59
2022-09-16T20:57:49.520Z,96735.84
2022-09-16T20:59:51.049Z,96742.50
2022-09-16T21:01:52.405Z,96742.50
2022-09-16T21:03:53.730Z,96747.53
2022-09-16T21:05:55.052Z,96747.63
2022-09-16T21:07:56.331Z,96741.09
2022-09-16T21:09:57.623Z,96751.53
2022-09-16T21:11:58.902Z,96741.44
2022-09-16T21:14:00.343Z,96747.97
2022-09-16T21:16:01.782Z,96747.41
2022-09-16T21:18:03.239Z,96749.88
2022-09-16T21:20:04.707Z,96743.19
2022-09-16T21:22:05.988Z,96741.41
2022-09-16T21:24:07.287Z,96744.34
2022-09-16T21:26:08.594Z,96745.13
2022-09-16T21:28:09.984Z,96745.13
2022-09-16T21:30:11.307Z,96742.09
2022-09-16T21:32:12.595Z,96739.88
2022-09-16T21:34:13.940Z,96742.75
2022-09-16T21:36:15.214Z,96742.03
2022-09-16T21:38:17.360Z,96740.53
2022-09-16T21:40:23.502Z,96743.25
2022-09-16T21:42:24.960Z,96744.28
2022-09-16T21:44:26.650Z,96741.00
2022-09-16T21:46:28.005Z,96560.41
2022-09-16T21:48:31.356Z,96730.94
2022-09-16T21:50:32.631Z,96728.50
2022-09-16T21:52:33.891Z,96735.34
2022-09-16T21:54:35.174Z,96726.09
2022-09-16T21:56:36.464Z,96726.91
2022-09-16T21:58:37.947Z,96728.56
2022-09-16T22:00:39.321Z,96733.75
2022-09-16T22:02:40.724Z,96718.50
2022-09-16T22:04:42.022Z,96718.56
2022-09-16T22:06:43.359Z,96717.59
2022-09-16T22:08:48.730Z,96723.53
2022-09-16T22:10:50.505Z,96719.31
2022-09-16T22:12:51.820Z,96724.50
2022-09-16T22:14:53.113Z,96729.66
2022-09-16T22:16:54.390Z,96732.28
2022-09-16T22:18:55.883Z,96720.41
2022-09-16T22:20:58.644Z,96725.31
2022-09-16T22:22:59.932Z,96733.69
2022-09-16T22:25:01.230Z,96732.84
2022-09-16T22:27:02.547Z,96738.06
2022-09-16T22:29:03.892Z,96733.88
2022-09-16T22:31:05.218Z,96732.19
2022-09-16T22:33:06.563Z,96722.88
2022-09-16T22:35:07.854Z,96720.47
2022-09-16T22:37:09.289Z,96720.47
2022-09-16T22:39:10.599Z,96723.06
2022-09-16T22:41:11.931Z,96722.19
2022-09-16T22:43:13.216Z,96719.69
2022-09-16T22:45:14.483Z,96718.88
2022-09-16T22:47:15.815Z,96729.88
2022-09-16T22:49:17.102Z,96731.63
2022-09-16T22:51:18.422Z,96725.69
2022-09-16T22:53:19.729Z,96725.75
2022-09-16T22:55:20.999Z,96730.09
2022-09-16T22:57:22.277Z,96727.47
2022-09-16T22:59:23.542Z,96724.97
2022-09-16T23:01:24.918Z,96723.31
2022-09-16T23:03:26.199Z,96712.31
2022-09-16T23:05:27.905Z,96725.94
2022-09-16T23:07:29.882Z,96714.13
2022-09-16T23:09:31.203Z,96714.13
2022-09-16T23:11:32.550Z,96714.13
2022-09-16T23:13:33.923Z,96705.59
2022-09-16T23:15:35.231Z,96706.50
2022-09-16T23:17:36.498Z,96703.97
2022-09-16T23:19:37.788Z,96702.09
2022-09-16T23:21:39.067Z,96714.84
2022-09-16T23:23:40.374Z,96699.59
2022-09-16T23:25:41.743Z,96703.94
2022-09-16T23:27:43.102Z,96703.97
2022-09-16T23:29:44.428Z,96704.91
2022-09-16T23:31:45.831Z,96697.25
2022-09-16T23:33:47.206Z,96692.97
2022-09-16T23:35:48.547Z,96696.47
2022-09-16T23:37:49.831Z,96705.84
2022-09-16T23:39:51.154Z,96697.44
2022-09-16T23:41:52.473Z,96732.31
2022-09-16T23:43:54.203Z,96706.81
2022-09-16T23:45:55.857Z,96711.91
2022-09-16T23:47:57.130Z,96711.91
2022-09-16T23:49:58.467Z,96705.97
2022-09-16T23:51:59.798Z,96705.13
2022-09-16T23:54:01.159Z,96707.69